createdAt,value
2023-03-27T00:02:11.576Z,99932.38
2023-03-27T00:04:41.115Z,99936.91
2023-03-27T00:07:09.254Z,99935.06
2023-03-27T00:09:37.252Z,99947.63
2023-03-27T00:12:04.951Z,99951.28
2023-03-27T00:14:32.842Z,99949.31
2023-03-27T00:17:00.373Z,99951.16
2023-03-27T00:19:27.783Z,99952.16
2023-03-27T00:21:56.183Z,99954.97
2023-03-27T00:24:23.603Z,99954.97
2023-03-27T00:26:51.204Z,99959.50
2023-03-27T00:29:19.141Z,99960.50
2023-03-27T00:31:46.317Z,99971.06
2023-03-27T00:34:13.670Z,99977.69
2023-03-27T00:36:40.825Z,99981.09
2023-03-27T00:39:08.208Z,99986.84
2023-03-27T00:41:35.542Z,99985.75
2023-03-27T00:44:17.764Z,99999.16
2023-03-27T00:46:45.589Z,100000.16
2023-03-27T00:49:13.940Z,100009.28
2023-03-27T00:51:42.589Z,100019.31
2023-03-27T00:54:10.812Z,100023.53
2023-03-27T00:56:38.756Z,100010.13
2023-03-27T00:59:12.659Z,100018.16
2023-03-27T01:01:40.543Z,100019.00
2023-03-27T01:04:09.071Z,100015.50
2023-03-27T01:06:37.637Z,100020.97
2023-03-27T01:09:04.914Z,100029.03
2023-03-27T01:11:40.520Z,100027.50
2023-03-27T01:14:32.559Z,100036.22
2023-03-27T01:17:28.485Z,100036.38
2023-03-27T01:20:14.251Z,100027.22
2023-03-27T01:23:36.207Z,100027.22
2023-03-27T01:26:35.552Z,100028.34
2023-03-27T01:29:33.003Z,100048.06
2023-03-27T01:32:09.247Z,100056.28
2023-03-27T01:35:18.127Z,100067.72
2023-03-27T01:38:00.376Z,100053.03
2023-03-27T01:40:37.072Z,100059.25
2023-03-27T01:43:20.699Z,100063.19
2023-03-27T01:45:52.600Z,100074.19
2023-03-27T01:48:26.717Z,100068.97
2023-03-27T01:51:21.048Z,100082.22
2023-03-27T01:54:12.138Z,100080.97
2023-03-27T01:56:53.424Z,100086.31
2023-03-27T01:59:23.465Z,100088.72
2023-03-27T02:02:09.188Z,100092.53
2023-03-27T02:04:43.313Z,100084.91
2023-03-27T02:07:18.666Z,100084.06
2023-03-27T02:09:49.318Z,100087.88
2023-03-27T02:12:21.381Z,100091.69
2023-03-27T02:14:55.420Z,100100.44
2023-03-27T02:17:26.207Z,100101.41
2023-03-27T02:20:02.494Z,100112.41
2023-03-27T02:22:38.201Z,100112.72
2023-03-27T02:25:28.753Z,100123.84
2023-03-27T02:28:36.786Z,100117.50
2023-03-27T02:31:34.150Z,100123.00
2023-03-27T02:34:38.468Z,100142.19
2023-03-27T02:37:32.267Z,100141.88
2023-03-27T02:40:15.886Z,100149.09
2023-03-27T02:43:02.375Z,100146.56
2023-03-27T02:45:51.898Z,100153.47
2023-03-27T02:48:28.981Z,100162.94
2023-03-27T02:51:27.438Z,100171.38
2023-03-27T02:53:59.272Z,100180.41
2023-03-27T02:56:28.425Z,100177.72
2023-03-27T02:58:59.879Z,100182.41
2023-03-27T03:01:27.510Z,100189.44
2023-03-27T03:04:20.310Z,100185.78
2023-03-27T03:06:47.502Z,100197.34
2023-03-27T03:09:14.896Z,100203.84
2023-03-27T03:11:51.378Z,100204.13
2023-03-27T03:14:23.092Z,100219.59
2023-03-27T03:16:50.366Z,100217.78
2023-03-27T03:19:17.637Z,100222.16
2023-03-27T03:21:46.828Z,100223.84
2023-03-27T03:24:13.995Z,100222.59
2023-03-27T03:26:41.500Z,100227.25
2023-03-27T03:29:10.434Z,100235.28
2023-03-27T03:31:44.700Z,100235.28
2023-03-27T03:34:16.658Z,100250.38
2023-03-27T03:36:48.903Z,100252.34
2023-03-27T03:39:16.847Z,100248.22
2023-03-27T03:41:44.044Z,100257.72
2023-03-27T03:44:11.258Z,100256.16
2023-03-27T03:46:39.070Z,100269.66
2023-03-27T03:49:06.761Z,100273.91
2023-03-27T03:51:34.364Z,100271.50
2023-03-27T03:54:01.939Z,100282.09
2023-03-27T03:56:30.879Z,100283.06
2023-03-27T03:58:58.128Z,100283.06
2023-03-27T04:01:26.103Z,100288.44
2023-03-27T04:03:53.417Z,100289.41
2023-03-27T04:06:21.329Z,100297.31
2023-03-27T04:08:48.716Z,100302.09
2023-03-27T04:11:16.148Z,100306.50
2023-03-27T04:13:43.332Z,100312.13
2023-03-27T04:16:10.804Z,100312.13
2023-03-27T04:18:41.097Z,100311.97
2023-03-27T04:21:14.428Z,100324.25
2023-03-27T04:23:43.397Z,100324.53
2023-03-27T04:26:12.250Z,100324.53
2023-03-27T04:28:40.218Z,100329.88
2023-03-27T04:31:08.585Z,100323.13
2023-03-27T04:33:46.166Z,100338.06
2023-03-27T04:36:14.771Z,100339.19
2023-03-27T04:38:42.036Z,100334.53
2023-03-27T04:41:09.257Z,100342.81
2023-03-27T04:43:40.056Z,100346.22
2023-03-27T04:46:07.981Z,100346.50
2023-03-27T04:48:38.180Z,100342.81
2023-03-27T04:51:06.671Z,100345.97
2023-03-27T04:53:36.162Z,100354.72
2023-03-27T04:56:04.194Z,100352.31
2023-03-27T04:58:31.360Z,100356.84
2023-03-27T05:00:58.896Z,100361.97
2023-03-27T05:03:28.253Z,100365.78
2023-03-27T05:05:55.617Z,100369.69
2023-03-27T05:08:22.858Z,100376.28
2023-03-27T05:10:50.738Z,100387.22
2023-03-27T05:13:17.978Z,100392.66
2023-03-27T05:15:45.158Z,100397.78
2023-03-27T05:18:12.556Z,100394.50
2023-03-27T05:20:40.040Z,100394.59
2023-03-27T05:23:07.343Z,100401.94
2023-03-27T05:25:39.391Z,100407.50
2023-03-27T05:28:07.453Z,100411.47
2023-03-27T05:30:35.061Z,100407.81
2023-03-27T05:33:02.358Z,100412.13
2023-03-27T05:35:29.711Z,100421.78
2023-03-27T05:37:57.501Z,100419.56
2023-03-27T05:40:26.588Z,100430.03
2023-03-27T05:42:54.572Z,100427.19
2023-03-27T05:45:22.914Z,100430.13
2023-03-27T05:47:52.708Z,100444.00
2023-03-27T05:50:22.059Z,100442.44
2023-03-27T05:52:55.880Z,100453.72
2023-03-27T05:55:23.301Z,100465.09
2023-03-27T05:57:50.511Z,100465.59
2023-03-27T06:00:22.903Z,100462.56
2023-03-27T06:02:50.354Z,100464.69
2023-03-27T06:05:18.219Z,100471.53
2023-03-27T06:07:47.574Z,100477.47
2023-03-27T06:10:17.798Z,100480.84
2023-03-27T06:12:47.062Z,100476.06
2023-03-27T06:15:16.297Z,100489.06
2023-03-27T06:17:46.666Z,100488.94
2023-03-27T06:20:15.461Z,100496.69
2023-03-27T06:22:44.779Z,100501.94
2023-03-27T06:25:12.020Z,100502.63
2023-03-27T06:27:40.991Z,100503.94
2023-03-27T06:30:09.422Z,100503.84
2023-03-27T06:32:36.907Z,100507.94
2023-03-27T06:35:04.490Z,100511.34
2023-03-27T06:37:36.825Z,100505.69
2023-03-27T06:40:09.401Z,100512.63
2023-03-27T06:42:40.437Z,100516.75
2023-03-27T06:45:10.331Z,100520.03
2023-03-27T06:47:44.414Z,100525.13
2023-03-27T06:50:19.902Z,100527.66
2023-03-27T06:52:50.974Z,100542.50
2023-03-27T06:55:19.608Z,100550.00
2023-03-27T06:57:48.737Z,100550.56
2023-03-27T07:00:19.957Z,100553.16
2023-03-27T07:02:47.714Z,100546.50
2023-03-27T07:05:15.605Z,100549.75
2023-03-27T07:07:43.532Z,100556.84
2023-03-27T07:10:11.520Z,100550.03
2023-03-27T07:12:38.919Z,100553.59
2023-03-27T07:15:07.863Z,100558.53
2023-03-27T07:17:45.913Z,100566.44
2023-03-27T07:20:15.665Z,100567.59
2023-03-27T07:22:43.135Z,100562.22
2023-03-27T07:25:12.143Z,100566.78
2023-03-27T07:27:39.394Z,100567.34
2023-03-27T07:30:08.135Z,100571.75
2023-03-27T07:32:37.975Z,100575.19
2023-03-27T07:35:06.408Z,100567.09
2023-03-27T07:37:33.724Z,100576.13
2023-03-27T07:40:01.281Z,100586.47
2023-03-27T07:42:28.775Z,100581.81
2023-03-27T07:44:56.025Z,100581.13
2023-03-27T07:47:23.317Z,100580.72
2023-03-27T07:49:50.564Z,100586.66
2023-03-27T07:52:20.258Z,100588.47
2023-03-27T07:54:48.753Z,100589.59
2023-03-27T07:57:16.077Z,100586.41
2023-03-27T07:59:45.239Z,100587.16
2023-03-27T08:02:13.722Z,100583.66
2023-03-27T08:04:41.062Z,100592.38
2023-03-27T08:07:08.547Z,100586.47
2023-03-27T08:09:35.692Z,100584.34
2023-03-27T08:12:03.571Z,100593.00
2023-03-27T08:14:30.969Z,100589.91
2023-03-27T08:17:12.445Z,100593.00
2023-03-27T08:19:45.411Z,100597.69
2023-03-27T08:22:12.951Z,100610.28
2023-03-27T08:24:40.289Z,100604.59
2023-03-27T08:27:07.495Z,100612.81
2023-03-27T08:29:34.635Z,100612.25
2023-03-27T08:32:02.178Z,100617.78
2023-03-27T08:34:29.422Z,100610.31
2023-03-27T08:36:56.613Z,100609.72
2023-03-27T08:39:23.921Z,100622.59
2023-03-27T08:41:55.125Z,100613.94
2023-03-27T08:44:23.504Z,100625.81
2023-03-27T08:46:58.174Z,100630.78
2023-03-27T08:49:27.851Z,100630.63
2023-03-27T08:52:15.667Z,100634.03
2023-03-27T08:54:46.180Z,100634.81
2023-03-27T08:57:19.940Z,100645.94
2023-03-27T08:59:47.622Z,100635.81
2023-03-27T09:02:45.454Z,100638.47
2023-03-27T09:05:42.754Z,100647.50
2023-03-27T09:08:42.660Z,100648.78
2023-03-27T09:11:21.607Z,100656.81
2023-03-27T09:13:50.449Z,100652.16
2023-03-27T09:16:17.591Z,100662.47
2023-03-27T09:19:03.648Z,100656.94
2023-03-27T09:21:50.221Z,100665.09
2023-03-27T09:24:29.460Z,100668.09
2023-03-27T09:27:06.655Z,100662.47
2023-03-27T09:29:37.941Z,100664.63
2023-03-27T09:32:12.118Z,100673.00
2023-03-27T09:34:39.348Z,100682.03
2023-03-27T09:37:13.327Z,100666.38
2023-03-27T09:39:44.222Z,100679.56
2023-03-27T09:42:40.224Z,100676.63
2023-03-27T09:48:01.297Z,100679.38
2023-03-27T09:50:35.894Z,100684.50
2023-03-27T09:53:12.110Z,100689.44
2023-03-27T09:55:50.521Z,100685.38
2023-03-27T09:58:45.870Z,100683.13
2023-03-27T10:01:20.614Z,100693.88
2023-03-27T10:03:53.078Z,100688.28
2023-03-27T10:06:38.871Z,100686.41
2023-03-27T10:09:21.371Z,100687.06
2023-03-27T10:11:52.830Z,100691.31
2023-03-27T10:14:21.966Z,100692.75
2023-03-27T10:16:49.356Z,100682.06
2023-03-27T10:19:50.601Z,100675.63
2023-03-27T10:22:29.781Z,100687.06
2023-03-27T10:25:01.056Z,100693.00
2023-03-27T10:27:34.054Z,100687.50
2023-03-27T10:30:01.206Z,100691.19
2023-03-27T10:32:44.402Z,100697.69
2023-03-27T10:35:23.981Z,100696.94
2023-03-27T10:37:52.728Z,100703.69
2023-03-27T10:40:26.935Z,100698.19
2023-03-27T10:42:59.721Z,100707.94
2023-03-27T10:45:27.143Z,100712.25
2023-03-27T10:47:59.050Z,100710.91
2023-03-27T10:50:34.229Z,100714.81
2023-03-27T10:53:09.630Z,100711.66
2023-03-27T10:56:02.070Z,100713.22
2023-03-27T10:58:45.382Z,100714.25
2023-03-27T11:01:21.273Z,100729.69
2023-03-27T11:04:01.869Z,100713.50
2023-03-27T11:06:36.196Z,100711.50
2023-03-27T11:09:18.510Z,100709.53
2023-03-27T11:11:53.561Z,100709.41
2023-03-27T11:14:59.380Z,100713.41
2023-03-27T11:17:34.470Z,100709.38
2023-03-27T11:20:07.331Z,100718.03
2023-03-27T11:22:47.172Z,100718.41
2023-03-27T11:25:37.687Z,100724.50
2023-03-27T11:28:07.834Z,100729.03
2023-03-27T11:30:44.212Z,100728.03
2023-03-27T11:34:06.263Z,100728.09
2023-03-27T11:36:45.380Z,100732.28
2023-03-27T11:39:31.985Z,100728.66
2023-03-27T11:42:00.637Z,100722.34
2023-03-27T11:44:30.315Z,100726.78
2023-03-27T11:47:31.081Z,100728.88
2023-03-27T11:50:32.636Z,100727.81
2023-03-27T11:53:27.227Z,100725.34
2023-03-27T11:56:06.896Z,100730.72
2023-03-27T11:58:48.648Z,100733.09
2023-03-27T12:01:27.432Z,100737.25
2023-03-27T12:04:23.227Z,100725.34
2023-03-27T12:06:56.233Z,100739.19
2023-03-27T12:09:41.529Z,100726.03
2023-03-27T12:12:30.252Z,100730.66
2023-03-27T12:15:12.040Z,100721.88
2023-03-27T12:17:58.425Z,100727.72
2023-03-27T12:20:28.791Z,100728.69
2023-03-27T12:23:02.758Z,100737.19
2023-03-27T12:25:41.992Z,100736.81
2023-03-27T12:28:34.381Z,100734.56
2023-03-27T12:31:27.299Z,100748.47
2023-03-27T12:34:04.860Z,100750.34
2023-03-27T12:36:37.403Z,100744.66
2023-03-27T12:39:26.020Z,100752.63
2023-03-27T12:41:53.258Z,100763.09
2023-03-27T12:44:30.956Z,100766.13
2023-03-27T12:47:18.068Z,100778.50
2023-03-27T12:49:48.584Z,100771.25
2023-03-27T12:52:18.675Z,100764.66
2023-03-27T12:55:14.291Z,100757.31
2023-03-27T12:57:46.034Z,100761.50
2023-03-27T13:00:21.430Z,100757.97
2023-03-27T13:03:23.328Z,100757.72
2023-03-27T13:06:15.335Z,100768.97
2023-03-27T13:09:04.109Z,100766.34
2023-03-27T13:11:57.978Z,100758.00
2023-03-27T13:14:43.431Z,100760.00
2023-03-27T13:17:33.708Z,100773.19
2023-03-27T13:20:30.445Z,100771.75
2023-03-27T13:23:29.084Z,100779.13
2023-03-27T13:26:23.674Z,100778.59
2023-03-27T13:28:56.521Z,100782.28
2023-03-27T13:31:49.739Z,100773.78
2023-03-27T13:34:37.100Z,100774.53
2023-03-27T13:37:16.349Z,100779.47
2023-03-27T13:40:01.477Z,100768.56
2023-03-27T13:42:35.647Z,100780.19
2023-03-27T13:45:15.548Z,100783.84
2023-03-27T13:48:01.774Z,100780.03
2023-03-27T13:50:52.209Z,100790.09
2023-03-27T13:53:52.842Z,100794.22
2023-03-27T13:56:28.985Z,100794.53
2023-03-27T13:59:21.071Z,100797.25
2023-03-27T14:01:57.642Z,100787.63
2023-03-27T14:04:58.233Z,100794.47
2023-03-27T14:08:13.095Z,100790.19
2023-03-27T14:11:09.710Z,100786.41
2023-03-27T14:13:49.783Z,100781.31
2023-03-27T14:16:41.726Z,100787.56
2023-03-27T14:19:18.058Z,100782.66
2023-03-27T14:21:56.311Z,100798.31
2023-03-27T14:24:46.807Z,100794.44
2023-03-27T14:27:19.529Z,100790.91
2023-03-27T14:29:49.514Z,100788.25
2023-03-27T14:32:20.417Z,100794.25
2023-03-27T14:35:04.029Z,100800.56
2023-03-27T14:37:36.252Z,100793.03
2023-03-27T14:40:22.506Z,100794.75
2023-03-27T14:42:51.173Z,100797.56
2023-03-27T14:45:22.818Z,100794.31
2023-03-27T14:47:57.258Z,100797.66
2023-03-27T14:50:25.754Z,100803.34
2023-03-27T14:52:54.417Z,100806.16
2023-03-27T14:55:25.720Z,100797.53
2023-03-27T14:57:57.507Z,100796.81
2023-03-27T15:00:25.730Z,100809.50
2023-03-27T15:02:55.035Z,100809.19
2023-03-27T15:05:22.984Z,100810.00
2023-03-27T15:07:51.638Z,100820.03
2023-03-27T15:10:31.605Z,100801.50
2023-03-27T15:12:59.012Z,100811.75
2023-03-27T15:15:28.810Z,100809.06
2023-03-27T15:17:59.722Z,100815.50
2023-03-27T15:20:30.215Z,100820.06
2023-03-27T15:23:02.098Z,100825.56
2023-03-27T15:25:42.866Z,100839.56
2023-03-27T15:28:20.849Z,100837.97
2023-03-27T15:30:52.270Z,100836.09
2023-03-27T15:33:24.534Z,100837.81
2023-03-27T15:35:54.327Z,100829.78
2023-03-27T15:38:28.767Z,100818.31
2023-03-27T15:41:02.370Z,100830.44
2023-03-27T15:43:30.825Z,100829.09
2023-03-27T15:46:10.425Z,100826.16
2023-03-27T15:48:40.787Z,100820.19
2023-03-27T15:51:27.700Z,100829.19
2023-03-27T15:53:59.005Z,100830.63
2023-03-27T15:56:42.314Z,100826.97
2023-03-27T15:59:12.880Z,100837.25
2023-03-27T16:01:42.695Z,100845.06
2023-03-27T16:04:41.151Z,100834.41
2023-03-27T16:07:21.652Z,100833.09
2023-03-27T16:10:02.464Z,100832.47
2023-03-27T16:12:58.200Z,100833.63
2023-03-27T16:15:29.913Z,100833.88
2023-03-27T16:18:23.418Z,100843.03
2023-03-27T16:20:50.623Z,100840.69
2023-03-27T16:23:18.002Z,100834.78
2023-03-27T16:25:45.292Z,100842.44
2023-03-27T16:28:14.567Z,100852.09
2023-03-27T16:30:42.210Z,100854.34
2023-03-27T16:33:15.770Z,100868.31
2023-03-27T16:35:44.149Z,100865.75
2023-03-27T16:38:11.888Z,100868.31
2023-03-27T16:40:39.375Z,100860.97
2023-03-27T16:43:06.982Z,100860.25
2023-03-27T16:45:34.349Z,100864.91
2023-03-27T16:48:01.665Z,100874.06
2023-03-27T16:50:30.678Z,100880.22
2023-03-27T16:52:57.853Z,100879.50
2023-03-27T16:55:25.536Z,100880.69
2023-03-27T16:57:54.071Z,100878.81
2023-03-27T17:00:21.518Z,100890.09
2023-03-27T17:02:48.733Z,100891.31
2023-03-27T17:05:16.076Z,100895.13
2023-03-27T17:07:44.815Z,100895.13
2023-03-27T17:10:12.220Z,100897.91
2023-03-27T17:12:39.399Z,100903.44
2023-03-27T17:15:07.284Z,100911.50
2023-03-27T17:17:34.548Z,100914.56
2023-03-27T17:20:01.978Z,100921.53
2023-03-27T17:22:29.902Z,100921.75
2023-03-27T17:25:01.014Z,100916.31
2023-03-27T17:27:28.245Z,100920.00
2023-03-27T17:29:56.242Z,100922.63
2023-03-27T17:32:24.846Z,100926.34
2023-03-27T17:34:52.314Z,100928.78
2023-03-27T17:37:20.808Z,100929.34
2023-03-27T17:39:48.436Z,100933.97
2023-03-27T17:42:15.901Z,100932.78
2023-03-27T17:44:44.904Z,100934.47
2023-03-27T17:47:12.434Z,100944.69
2023-03-27T17:49:40.782Z,100945.72
2023-03-27T17:52:11.143Z,100950.78
2023-03-27T17:54:38.572Z,100948.22
2023-03-27T17:57:06.232Z,100951.22
2023-03-27T17:59:33.879Z,100961.59
2023-03-27T18:02:01.377Z,100954.19
2023-03-27T18:04:28.936Z,100957.34
2023-03-27T18:06:56.365Z,100964.66
2023-03-27T18:09:24.139Z,100957.34
2023-03-27T18:11:51.595Z,100966.63
2023-03-27T18:14:18.795Z,100958.69
2023-03-27T18:16:46.133Z,100964.56
2023-03-27T18:19:14.498Z,100977.88
2023-03-27T18:21:41.738Z,100987.19
2023-03-27T18:24:09.419Z,100988.34
2023-03-27T18:26:36.775Z,100991.91
2023-03-27T18:29:04.989Z,100988.13
2023-03-27T18:31:32.233Z,100995.69
2023-03-27T18:34:00.046Z,100996.19
2023-03-27T18:36:27.431Z,100999.97
2023-03-27T18:38:54.880Z,100993.50
2023-03-27T18:41:22.378Z,100993.50
2023-03-27T18:43:49.644Z,100989.34
2023-03-27T18:46:17.274Z,100988.28
2023-03-27T18:48:45.677Z,100991.81
2023-03-27T18:51:13.220Z,100997.91
2023-03-27T18:53:40.580Z,101003.28
2023-03-27T18:56:08.152Z,100998.63
2023-03-27T18:58:35.951Z,101003.03
2023-03-27T19:01:09.058Z,100998.16
2023-03-27T19:03:37.056Z,100995.34
2023-03-27T19:06:06.030Z,100996.09
2023-03-27T19:08:33.507Z,100991.53
2023-03-27T19:11:01.145Z,100997.28
2023-03-27T19:13:28.554Z,100998.16
2023-03-27T19:15:56.167Z,100993.50
2023-03-27T19:18:25.574Z,100996.19
2023-03-27T19:20:53.116Z,100992.56
2023-03-27T19:23:20.806Z,100990.81
2023-03-27T19:25:49.062Z,100989.97
2023-03-27T19:28:16.492Z,100993.66
2023-03-27T19:30:44.269Z,100978.47
2023-03-27T19:33:11.767Z,100980.94
2023-03-27T19:35:39.069Z,100975.44
2023-03-27T19:38:06.933Z,100981.19
2023-03-27T19:40:34.136Z,100985.44
2023-03-27T19:43:01.310Z,100980.09
2023-03-27T19:45:28.620Z,100974.72
2023-03-27T19:47:56.182Z,100972.03
2023-03-27T19:50:23.459Z,100979.97
2023-03-27T19:53:05.210Z,100974.09
2023-03-27T19:55:35.413Z,100974.47
2023-03-27T19:58:02.602Z,100977.06
2023-03-27T20:00:31.520Z,100966.94
2023-03-27T20:02:59.614Z,100963.50
2023-03-27T20:05:27.615Z,100969.09
2023-03-27T20:07:54.911Z,100968.38
2023-03-27T20:10:22.566Z,100964.59
2023-03-27T20:12:49.980Z,100962.31
2023-03-27T20:15:17.229Z,100966.84
2023-03-27T20:17:44.481Z,100955.44
2023-03-27T20:20:12.241Z,100961.00
2023-03-27T20:22:54.326Z,100968.47
2023-03-27T20:25:25.387Z,100958.00
2023-03-27T20:27:52.754Z,100968.75
2023-03-27T20:30:20.009Z,100973.88
2023-03-27T20:32:47.223Z,100975.44
2023-03-27T20:35:23.514Z,100967.53
2023-03-27T20:37:56.378Z,100968.63
2023-03-27T20:40:24.307Z,100972.03
2023-03-27T20:43:05.662Z,100960.72
2023-03-27T20:45:33.083Z,100967.94
2023-03-27T20:48:03.412Z,100974.13
2023-03-27T20:50:31.507Z,100961.91
2023-03-27T20:52:58.806Z,100956.75
2023-03-27T20:55:33.581Z,100962.56
2023-03-27T20:58:02.089Z,100951.31
2023-03-27T21:00:29.274Z,100957.19
2023-03-27T21:02:56.703Z,100954.66
2023-03-27T21:05:24.035Z,100960.63
2023-03-27T21:07:52.495Z,100957.69
2023-03-27T21:10:22.947Z,100962.22
2023-03-27T21:12:51.179Z,100960.63
2023-03-27T21:15:18.634Z,100962.34
2023-03-27T21:17:46.154Z,100964.03
2023-03-27T21:20:13.574Z,100952.06
2023-03-27T21:22:40.774Z,100958.44
2023-03-27T21:25:08.162Z,100958.88
2023-03-27T21:27:35.423Z,100959.88
2023-03-27T21:30:02.846Z,100955.59
2023-03-27T21:32:30.370Z,100960.88
2023-03-27T21:34:57.682Z,100983.19
2023-03-27T21:37:25.211Z,100963.78
2023-03-27T21:39:52.592Z,100967.09
2023-03-27T21:42:21.801Z,100964.50
2023-03-27T21:44:53.636Z,100964.75
2023-03-27T21:47:22.380Z,100978.91
2023-03-27T21:49:49.858Z,100962.56
2023-03-27T21:52:17.300Z,100964.75
2023-03-27T21:54:53.163Z,100961.31
2023-03-27T21:57:29.696Z,100957.69
2023-03-27T21:59:57.209Z,100955.59
2023-03-27T22:02:24.689Z,100938.16
2023-03-27T22:04:52.090Z,100930.50
2023-03-27T22:07:19.286Z,100932.06
2023-03-27T22:09:47.125Z,100939.00
2023-03-27T22:12:14.389Z,100939.16
2023-03-27T22:14:41.602Z,100943.53
2023-03-27T22:17:08.989Z,100926.09
2023-03-27T22:19:36.161Z,100944.75
2023-03-27T22:22:03.644Z,100939.25
2023-03-27T22:24:31.098Z,100941.94
2023-03-27T22:26:58.591Z,100946.34
2023-03-27T22:29:25.989Z,100962.31
2023-03-27T22:31:53.496Z,100959.75
2023-03-27T22:34:21.213Z,100940.16
2023-03-27T22:36:48.395Z,100963.66
2023-03-27T22:39:15.628Z,100957.59
2023-03-27T22:41:42.922Z,100963.06
2023-03-27T22:44:10.508Z,100964.66
2023-03-27T22:46:37.858Z,100977.22
2023-03-27T22:49:05.087Z,100970.13
2023-03-27T22:51:32.408Z,100977.72
2023-03-27T22:53:59.799Z,100983.94
2023-03-27T22:56:26.985Z,100978.06
2023-03-27T22:58:54.205Z,100970.00
2023-03-27T23:01:21.405Z,100985.03
2023-03-27T23:03:48.690Z,100966.72
2023-03-27T23:06:21.209Z,100985.50
2023-03-27T23:08:49.741Z,100968.56
2023-03-27T23:11:17.180Z,100975.63
2023-03-27T23:13:44.697Z,100986.13
2023-03-27T23:16:13.076Z,100991.13
2023-03-27T23:18:40.315Z,100996.50
2023-03-27T23:21:09.777Z,101003.44
2023-03-27T23:23:39.041Z,101006.38
2023-03-27T23:26:07.219Z,101007.22
2023-03-27T23:28:36.609Z,101010.88
2023-03-27T23:31:06.731Z,101017.09
2023-03-27T23:33:36.491Z,101014.31
2023-03-27T23:36:09.241Z,101018.09
2023-03-27T23:38:37.289Z,101019.94
2023-03-27T23:41:05.751Z,101028.44
2023-03-27T23:43:33.375Z,101033.19
2023-03-27T23:46:01.145Z,101033.34
2023-03-27T23:48:29.621Z,101028.22
2023-03-27T23:50:57.451Z,101033.59
2023-03-27T23:53:26.180Z,101032.59
2023-03-27T23:55:53.936Z,101037.13
2023-03-27T23:58:21.181Z,101050.63
